sensor_id;sensor_type;location;lat;lon;timestamp;temperature;humidity
14144;DHT22;7152;48.348;10.980;2023-12-20T17:56:05;3.50;99.90
14144;DHT22;7152;48.348;10.980;2023-12-20T17:58:31;3.40;99.90
14144;DHT22;7152;48.348;10.980;2023-12-20T18:00:57;3.40;99.90
14144;DHT22;7152;48.348;10.980;2023-12-20T18:03:24;3.40;99.90
14144;DHT22;7152;48.348;10.980;2023-12-20T18:05:50;3.50;99.90
14144;DHT22;7152;48.348;10.980;2023-12-20T18:08:16;3.60;99.90
14144;DHT22;7152;48.348;10.980;2023-12-20T18:10:42;3.60;99.90
14144;DHT22;7152;48.348;10.980;2023-12-20T18:13:08;3.70;99.90
14144;DHT22;7152;48.348;10.980;2023-12-20T18:15:33;3.70;99.90
14144;DHT22;7152;48.348;10.980;2023-12-20T18:17:59;3.70;99.90
14144;DHT22;7152;48.348;10.980;2023-12-20T18:20:25;3.80;99.90
14144;DHT22;7152;48.348;10.980;2023-12-20T18:22:51;3.80;99.90
14144;DHT22;7152;48.348;10.980;2023-12-20T18:25:18;3.80;99.90
14144;DHT22;7152;48.348;10.980;2023-12-20T18:27:44;3.80;99.90
14144;DHT22;7152;48.348;10.980;2023-12-20T18:30:10;3.90;99.90
14144;DHT22;7152;48.348;10.980;2023-12-20T18:32:36;3.90;99.90
14144;DHT22;7152;48.348;10.980;2023-12-20T18:35:02;4.00;99.90
14144;DHT22;7152;48.348;10.980;2023-12-20T18:37:28;4.00;99.90
14144;DHT22;7152;48.348;10.980;2023-12-20T18:39:55;4.10;99.90
14144;DHT22;7152;48.348;10.980;2023-12-20T18:42:21;4.10;99.90
14144;DHT22;7152;48.348;10.980;2023-12-20T18:44:47;4.10;99.90
14144;DHT22;7152;48.348;10.980;2023-12-20T18:47:13;4.20;99.90
14144;DHT22;7152;48.348;10.980;2023-12-20T18:49:39;4.20;99.90
14144;DHT22;7152;48.348;10.980;2023-12-20T18:52:05;4.20;99.90
14144;DHT22;7152;48.348;10.980;2023-12-20T18:54:32;4.20;99.90
14144;DHT22;7152;48.348;10.980;2023-12-20T18:56:58;4.20;99.90
14144;DHT22;7152;48.348;10.980;2023-12-20T18:59:24;4.20;99.90
14144;DHT22;7152;48.348;10.980;2023-12-20T19:01:51;4.30;99.90
14144;DHT22;7152;48.348;10.980;2023-12-20T19:04:17;4.30;99.90
14144;DHT22;7152;48.348;10.980;2023-12-20T19:06:43;4.30;99.90
14144;DHT22;7152;48.348;10.980;2023-12-20T19:09:09;4.30;99.90
14144;DHT22;7152;48.348;10.980;2023-12-20T19:11:35;4.20;99.90
14144;DHT22;7152;48.348;10.980;2023-12-20T19:14:02;4.20;99.90
14144;DHT22;7152;48.348;10.980;2023-12-20T19:16:28;4.20;99.90
14144;DHT22;7152;48.348;10.980;2023-12-20T19:18:54;4.20;99.90
14144;DHT22;7152;48.348;10.980;2023-12-20T19:21:20;4.20;99.90
14144;DHT22;7152;48.348;10.980;2023-12-20T19:23:46;4.20;99.90
14144;DHT22;7152;48.348;10.980;2023-12-20T19:26:13;4.20;99.90
14144;DHT22;7152;48.348;10.980;2023-12-20T19:28:39;4.20;99.90
14144;DHT22;7152;48.348;10.980;2023-12-20T19:31:06;4.10;99.90
14144;DHT22;7152;48.348;10.980;2023-12-20T19:33:36;4.10;99.90
14144;DHT22;7152;48.348;10.980;2023-12-20T19:36:03;4.10;99.90
14144;DHT22;7152;48.348;10.980;2023-12-20T19:38:29;4.10;99.90
14144;DHT22;7152;48.348;10.980;2023-12-20T19:40:54;4.10;99.90
14144;DHT22;7152;48.348;10.980;2023-12-20T19:43:20;4.00;99.90
14144;DHT22;7152;48.348;10.980;2023-12-20T19:45:46;4.10;99.90
14144;DHT22;7152;48.348;10.980;2023-12-20T19:48:12;4.00;99.90
14144;DHT22;7152;48.348;10.980;2023-12-20T19:50:38;4.10;99.90
14144;DHT22;7152;48.348;10.980;2023-12-20T19:53:04;4.10;99.90
14144;DHT22;7152;48.348;10.980;2023-12-20T19:55:30;4.10;99.90
14144;DHT22;7152;48.348;10.980;2023-12-20T19:57:58;4.00;99.90
14144;DHT22;7152;48.348;10.980;2023-12-20T20:00:25;4.00;99.90
14144;DHT22;7152;48.348;10.980;2023-12-20T20:02:51;4.00;99.90
14144;DHT22;7152;48.348;10.980;2023-12-20T20:05:16;4.10;99.90
14144;DHT22;7152;48.348;10.980;2023-12-20T20:07:42;4.00;99.90
14144;DHT22;7152;48.348;10.980;2023-12-20T20:10:08;4.10;99.90
14144;DHT22;7152;48.348;10.980;2023-12-20T20:12:35;4.10;99.90
14144;DHT22;7152;48.348;10.980;2023-12-20T20:15:01;4.00;99.90
14144;DHT22;7152;48.348;10.980;2023-12-20T20:17:27;4.10;99.90
14144;DHT22;7152;48.348;10.980;2023-12-20T20:19:53;4.10;99.90
14144;DHT22;7152;48.348;10.980;2023-12-20T20:22:18;4.10;99.90
14144;DHT22;7152;48.348;10.980;2023-12-20T20:24:45;4.10;99.90
14144;DHT22;7152;48.348;10.980;2023-12-20T20:27:11;4.10;99.90
14144;DHT22;7152;48.348;10.980;2023-12-20T20:29:37;4.10;99.90
14144;DHT22;7152;48.348;10.980;2023-12-20T20:32:03;4.10;99.90
14144;DHT22;7152;48.348;10.980;2023-12-20T20:34:29;4.10;99.90
14144;DHT22;7152;48.348;10.980;2023-12-20T20:36:55;4.10;99.90
14144;DHT22;7152;48.348;10.980;2023-12-20T20:39:21;4.10;99.90
14144;DHT22;7152;48.348;10.980;2023-12-20T20:41:47;4.10;99.90
14144;DHT22;7152;48.348;10.980;2023-12-20T20:44:13;4.10;99.90
14144;DHT22;7152;48.348;10.980;2023-12-20T20:46:39;4.10;99.90
14144;DHT22;7152;48.348;10.980;2023-12-20T20:49:05;4.10;99.90
14144;DHT22;7152;48.348;10.980;2023-12-20T20:51:32;4.10;99.90
14144;DHT22;7152;48.348;10.980;2023-12-20T20:53:57;4.10;99.90
14144;DHT22;7152;48.348;10.980;2023-12-20T20:56:23;4.10;99.90
14144;DHT22;7152;48.348;10.980;2023-12-20T20:58:49;4.10;99.90
14144;DHT22;7152;48.348;10.980;2023-12-20T21:01:18;4.10;99.90
14144;DHT22;7152;48.348;10.980;2023-12-20T21:03:44;4.10;99.90
14144;DHT22;7152;48.348;10.980;2023-12-20T21:06:11;4.10;99.90
14144;DHT22;7152;48.348;10.980;2023-12-20T21:08:37;4.10;99.90
14144;DHT22;7152;48.348;10.980;2023-12-20T21:11:03;4.10;99.90
14144;DHT22;7152;48.348;10.980;2023-12-20T21:13:29;4.10;99.90
14144;DHT22;7152;48.348;10.980;2023-12-20T21:15:56;4.00;99.90
14144;DHT22;7152;48.348;10.980;2023-12-20T21:18:22;4.00;99.90
14144;DHT22;7152;48.348;10.980;2023-12-20T21:20:48;4.00;99.90
14144;DHT22;7152;48.348;10.980;2023-12-20T21:23:14;4.00;99.90
14144;DHT22;7152;48.348;10.980;2023-12-20T21:25:40;4.00;99.90
14144;DHT22;7152;48.348;10.980;2023-12-20T21:28:06;4.00;99.90
14144;DHT22;7152;48.348;10.980;2023-12-20T21:30:32;4.00;99.90
14144;DHT22;7152;48.348;10.980;2023-12-20T21:33:00;3.90;99.90
14144;DHT22;7152;48.348;10.980;2023-12-20T21:35:26;3.90;99.90
14144;DHT22;7152;48.348;10.980;2023-12-20T21:37:52;3.90;99.90
14144;DHT22;7152;48.348;10.980;2023-12-20T21:40:18;3.80;99.90
14144;DHT22;7152;48.348;10.980;2023-12-20T21:42:44;3.80;99.90
14144;DHT22;7152;48.348;10.980;2023-12-20T21:45:11;3.80;99.90
14144;DHT22;7152;48.348;10.980;2023-12-20T21:47:37;3.80;99.90
